Terminal Aerodrome Forecast
Issued by NWS Knoxville/Tri Cities, TN

Home | Current Version | Previous Version | Text Only | Print | Product List | Glossary On
Versions: 1 2 3 4 5 6 7 8 9 10 11 12 13 14 15 16 17 18 19 20
000
FTUS44 KMRX 041120
TAFTRI
TAF
KTRI 041120Z 0412/0512 26006KT P6SM OVC080
     FM041600 25012KT P6SM BKN060
     FM042100 25012KT P6SM VCSH OVC050
     FM050000 26010KT 4SM -SHRA OVC025
     FM050600 26010KT P6SM VCSH OVC020=

USA.gov is the U.S. government's official web portal to all federal, state and local government web resources and services.